Main page
METAR-TAF:

METAR-TAF

Airports :

Albert – Picardie Airport

Albert, France

latitude: 49-58-21N, longitude: 002-41-29E, elevation: 111 m

Current weather observation

The report was made 20 minutes ago, at 09:30 UTC
Wind 11 kt from the East/Northeast
Temperature 4°C
Humidity 100%
Pressure 1026 hPa
Visibility: 8000 m

METAR: LFAQ 170930Z AUTO 07011KT 8000 ////// 04/04 Q1026

Time: 10:50 (09:50 UTC)

Forecast

The report was made 1 hour and 50 minutes ago, at 08:00 UTC
Forecast valid from 17 at 09 UTC to 17 at 18 UTC
Wind 7 kt from the Northeast
Visibility: 8000 m

TAF: LFAQ 170800Z 1709/1718 05007KT 8000 NSC

Weather observations and forecasts of more than 4000 airports (METAR and TAF reports).

The available stations are represented by yellow and red dots on the map.

Hover mouse over dot to see the name of the station.

Then click to see weather observations and forecasts.

To change the map : click on the green buttons with a black cross to zoom in, on the green button with a dash to zoom out, or on the green arrows for adjacent maps.


METAR-TAF: